createdAt,value
2024-01-15T00:01:53.911Z,-1.92
2024-01-15T00:04:21.467Z,-1.94
2024-01-15T00:06:50.601Z,-2.00
2024-01-15T00:09:17.871Z,-1.95
2024-01-15T00:11:45.283Z,-2.02
2024-01-15T00:14:13.171Z,-1.86
2024-01-15T00:16:41.940Z,-1.63
2024-01-15T00:19:09.631Z,-1.93
2024-01-15T00:21:36.845Z,-1.93
2024-01-15T00:24:06.064Z,-1.83
2024-01-15T00:26:33.491Z,-1.75
2024-01-15T00:29:00.726Z,-1.42
2024-01-15T00:31:28.222Z,-1.35
2024-01-15T00:33:55.930Z,-1.68
2024-01-15T00:36:23.228Z,-1.60
2024-01-15T00:38:50.491Z,-1.72
2024-01-15T00:41:17.903Z,-1.80
2024-01-15T00:43:50.392Z,-1.86
2024-01-15T00:46:18.627Z,-1.86
2024-01-15T00:48:46.310Z,-1.90
2024-01-15T00:51:13.636Z,-1.93
2024-01-15T00:53:41.444Z,-1.95
2024-01-15T00:56:08.537Z,-1.99
2024-01-15T00:58:35.666Z,-2.13
2024-01-15T01:01:03.243Z,-2.21
2024-01-15T01:03:30.943Z,-2.27
2024-01-15T01:05:58.292Z,-2.26
2024-01-15T01:08:25.898Z,-2.20
2024-01-15T01:10:53.044Z,-2.18
2024-01-15T01:13:20.467Z,-2.28
2024-01-15T01:15:48.258Z,-2.27
2024-01-15T01:18:15.612Z,-2.27
2024-01-15T01:20:42.967Z,-2.40
2024-01-15T01:23:10.475Z,-2.24
2024-01-15T01:25:37.725Z,-2.14
2024-01-15T01:28:05.061Z,-2.04
2024-01-15T01:30:32.598Z,-2.47
2024-01-15T01:32:59.842Z,-2.54
2024-01-15T01:35:27.056Z,-2.65
2024-01-15T01:37:54.476Z,-2.63
2024-01-15T01:40:21.692Z,-2.48
2024-01-15T01:42:49.682Z,-2.43
2024-01-15T01:45:17.313Z,-2.44
2024-01-15T01:47:44.656Z,-2.55
2024-01-15T01:50:14.083Z,-2.61
2024-01-15T01:52:42.004Z,-2.60
2024-01-15T01:55:10.648Z,-2.62
2024-01-15T01:57:38.014Z,-2.57
2024-01-15T02:00:06.317Z,-2.42
2024-01-15T02:02:38.736Z,-2.65
2024-01-15T02:05:07.418Z,-2.72
2024-01-15T02:07:36.927Z,-2.99
2024-01-15T02:10:04.801Z,-3.08
2024-01-15T02:12:32.203Z,-3.04
2024-01-15T02:14:59.340Z,-3.02
2024-01-15T02:17:26.524Z,-3.13
2024-01-15T02:19:54.697Z,-3.22
2024-01-15T02:22:21.884Z,-3.28
2024-01-15T02:24:49.131Z,-3.28
2024-01-15T02:27:21.958Z,-3.67
2024-01-15T02:29:49.451Z,-3.44
2024-01-15T02:32:17.583Z,-3.38
2024-01-15T02:34:44.799Z,-3.42
2024-01-15T02:37:12.697Z,-3.49
2024-01-15T02:39:40.153Z,-3.53
2024-01-15T02:42:07.389Z,-3.61
2024-01-15T02:44:36.567Z,-3.57
2024-01-15T02:47:04.123Z,-3.61
2024-01-15T02:49:32.383Z,-3.67
2024-01-15T02:51:59.586Z,-3.74
2024-01-15T02:54:27.342Z,-3.75
2024-01-15T02:56:54.497Z,-3.79
2024-01-15T02:59:21.666Z,-3.73
2024-01-15T03:01:49.133Z,-3.78
2024-01-15T03:04:16.308Z,-3.72
2024-01-15T03:06:43.558Z,-3.79
2024-01-15T03:09:11.145Z,-3.82
2024-01-15T03:11:39.882Z,-3.86
2024-01-15T03:14:07.208Z,-3.83
2024-01-15T03:16:34.591Z,-3.90
2024-01-15T03:19:02.626Z,-3.94
2024-01-15T03:21:29.788Z,-4.12
2024-01-15T03:23:57.237Z,-4.24
2024-01-15T03:26:24.427Z,-4.17
2024-01-15T03:28:53.844Z,-4.04
2024-01-15T03:31:22.382Z,-3.86
2024-01-15T03:33:49.908Z,-3.95
2024-01-15T03:36:17.044Z,-3.89
2024-01-15T03:38:44.513Z,-3.96
2024-01-15T03:41:11.658Z,-4.08
2024-01-15T03:43:38.803Z,-4.07
2024-01-15T03:46:06.268Z,-4.14
2024-01-15T03:48:36.381Z,-4.19
2024-01-15T03:51:03.805Z,-4.19
2024-01-15T03:53:31.497Z,-4.17
2024-01-15T03:55:58.600Z,-4.28
2024-01-15T03:58:25.761Z,-4.26
2024-01-15T04:00:53.265Z,-4.18
2024-01-15T04:03:20.731Z,-4.17
2024-01-15T04:05:48.177Z,-4.23
2024-01-15T04:08:15.300Z,-4.22
2024-01-15T04:10:42.800Z,-4.21
2024-01-15T04:13:12.170Z,-4.54
2024-01-15T04:15:42.461Z,-4.44
2024-01-15T04:18:10.172Z,-4.32
2024-01-15T04:20:37.332Z,-4.33
2024-01-15T04:23:04.662Z,-4.33
2024-01-15T04:25:32.238Z,-4.27
2024-01-15T04:27:59.390Z,-4.35
2024-01-15T04:30:26.699Z,-4.34
2024-01-15T04:32:54.411Z,-4.41
2024-01-15T04:35:21.576Z,-4.45
2024-01-15T04:37:48.757Z,-4.43
2024-01-15T04:40:17.358Z,-4.45
2024-01-15T04:42:46.832Z,-4.46
2024-01-15T04:45:14.195Z,-4.45
2024-01-15T04:47:41.670Z,-4.37
2024-01-15T04:50:16.996Z,-4.30
2024-01-15T04:52:44.415Z,-4.24
2024-01-15T04:55:11.588Z,-4.33
2024-01-15T04:57:39.028Z,-4.35
2024-01-15T05:00:07.142Z,-4.41
2024-01-15T05:02:34.406Z,-4.38
2024-01-15T05:05:01.538Z,-4.40
2024-01-15T05:07:29.006Z,-4.47
2024-01-15T05:09:56.989Z,-4.46
2024-01-15T05:12:26.016Z,-4.37
2024-01-15T05:14:53.493Z,-4.38
2024-01-15T05:17:20.698Z,-4.42
2024-01-15T05:19:50.954Z,-4.35
2024-01-15T05:22:20.206Z,-4.50
2024-01-15T05:24:47.402Z,-4.50
2024-01-15T05:27:14.617Z,-4.44
2024-01-15T05:29:44.136Z,-4.40
2024-01-15T05:32:11.303Z,-4.18
2024-01-15T05:34:38.987Z,-4.24
2024-01-15T05:37:06.539Z,-4.25
2024-01-15T05:39:35.695Z,-4.34
2024-01-15T05:42:02.929Z,-4.50
2024-01-15T05:44:30.321Z,-4.71
2024-01-15T05:46:57.426Z,-4.76
2024-01-15T05:49:25.036Z,-4.72
2024-01-15T05:51:53.208Z,-4.67
2024-01-15T05:54:21.220Z,-4.66
2024-01-15T05:56:48.497Z,-4.69
2024-01-15T05:59:16.362Z,-4.77
2024-01-15T06:01:43.560Z,-4.70
2024-01-15T06:04:11.293Z,-4.73
2024-01-15T06:06:41.574Z,-4.69
2024-01-15T06:09:10.022Z,-4.60
2024-01-15T06:11:37.516Z,-4.47
2024-01-15T06:14:04.702Z,-4.54
2024-01-15T06:16:32.093Z,-4.48
2024-01-15T06:18:59.584Z,-4.52
2024-01-15T06:21:26.849Z,-4.38
2024-01-15T06:23:54.141Z,-4.46
2024-01-15T06:26:21.550Z,-4.35
2024-01-15T06:28:49.040Z,-4.43
2024-01-15T06:31:16.309Z,-4.35
2024-01-15T06:33:46.130Z,-4.22
2024-01-15T06:36:14.012Z,-4.24
2024-01-15T06:38:41.310Z,-4.55
2024-01-15T06:41:08.983Z,-4.35
2024-01-15T06:43:36.144Z,-4.33
2024-01-15T06:46:06.440Z,-4.48
2024-01-15T06:48:35.341Z,-4.22
2024-01-15T06:51:02.627Z,-4.17
2024-01-15T06:53:37.130Z,-4.19
2024-01-15T06:56:04.836Z,-4.22
2024-01-15T06:58:35.130Z,-4.24
2024-01-15T07:01:03.179Z,-4.07
2024-01-15T07:03:30.986Z,-3.99
2024-01-15T07:05:58.179Z,-3.83
2024-01-15T07:08:25.312Z,-3.67
2024-01-15T07:10:53.346Z,-3.56
2024-01-15T07:13:21.011Z,-3.41
2024-01-15T07:15:48.261Z,-3.25
2024-01-15T07:18:16.111Z,-2.75
2024-01-15T07:20:43.348Z,-2.22
2024-01-15T07:23:10.517Z,-1.93
2024-01-15T07:25:38.028Z,-1.56
2024-01-15T07:28:06.093Z,-1.63
2024-01-15T07:30:33.438Z,-1.73
2024-01-15T07:33:01.100Z,-1.82
2024-01-15T07:35:28.348Z,-2.02
2024-01-15T07:37:56.987Z,-2.16
2024-01-15T07:40:25.996Z,-2.52
2024-01-15T07:42:53.677Z,-2.62
2024-01-15T07:45:20.922Z,-2.67
2024-01-15T07:47:48.634Z,-2.68
2024-01-15T07:50:16.899Z,-2.75
2024-01-15T07:52:44.088Z,-2.81
2024-01-15T07:55:12.662Z,-2.62
2024-01-15T07:57:39.903Z,-2.46
2024-01-15T08:00:07.737Z,-2.32
2024-01-15T08:02:37.628Z,-2.35
2024-01-15T08:05:06.833Z,-2.43
2024-01-15T08:07:34.042Z,-2.32
2024-01-15T08:10:04.535Z,-1.88
2024-01-15T08:12:31.714Z,-1.55
2024-01-15T08:14:59.636Z,-1.37
2024-01-15T08:17:29.938Z,-1.17
2024-01-15T08:19:57.927Z,-1.08
2024-01-15T08:22:25.261Z,-1.42
2024-01-15T08:24:57.588Z,-1.45
2024-01-15T08:27:25.369Z,-1.49
2024-01-15T08:32:51.157Z,-1.12
2024-01-15T08:35:18.684Z,-0.87
2024-01-15T08:37:48.010Z,-0.79
2024-01-15T08:40:16.897Z,-0.63
2024-01-15T08:42:45.071Z,-0.45
2024-01-15T08:45:12.728Z,-0.41
2024-01-15T08:47:41.390Z,-0.46
2024-01-15T08:50:11.519Z,-0.22
2024-01-15T08:52:38.877Z,0.07
2024-01-15T08:55:06.476Z,0.37
2024-01-15T08:57:34.159Z,0.51
2024-01-15T09:00:01.543Z,0.63
2024-01-15T09:02:29.002Z,0.76
2024-01-15T09:04:56.543Z,0.77
2024-01-15T09:07:26.582Z,0.86
2024-01-15T09:09:54.346Z,1.01
2024-01-15T09:12:23.508Z,1.02
2024-01-15T09:21:17.423Z,1.50
2024-01-15T09:23:45.796Z,1.62
2024-01-15T09:26:16.457Z,1.57
2024-01-15T09:28:44.911Z,1.46
2024-01-15T09:31:13.961Z,1.68
2024-01-15T09:33:43.983Z,1.84
2024-01-15T09:36:13.919Z,1.87
2024-01-15T09:38:43.128Z,2.13
2024-01-15T09:41:11.389Z,2.07
2024-01-15T09:43:39.894Z,2.06
2024-01-15T09:46:10.657Z,2.30
2024-01-15T09:48:40.020Z,2.27
2024-01-15T09:51:11.697Z,2.28
2024-01-15T09:53:43.105Z,2.44
2024-01-15T09:56:11.819Z,2.38
2024-01-15T09:58:43.802Z,2.41
2024-01-15T10:01:16.725Z,2.52
2024-01-15T10:03:45.550Z,2.54
2024-01-15T10:09:44.307Z,2.78
2024-01-15T10:12:12.808Z,2.84
2024-01-15T10:21:30.155Z,3.41
2024-01-15T10:24:01.553Z,3.51
2024-01-15T10:26:29.658Z,3.51
2024-01-15T10:28:57.802Z,3.43
2024-01-15T10:31:30.370Z,3.62
2024-01-15T10:34:12.023Z,3.45
2024-01-15T10:36:42.097Z,3.49
2024-01-15T10:39:09.640Z,3.58
2024-01-15T10:41:38.213Z,3.70
2024-01-15T10:44:06.196Z,3.78
2024-01-15T10:46:34.236Z,3.93
2024-01-15T10:49:04.000Z,4.10
2024-01-15T10:51:32.080Z,4.17
2024-01-15T10:54:01.330Z,4.23
2024-01-15T10:56:29.426Z,4.35
2024-01-15T10:59:00.636Z,4.31
2024-01-15T11:01:30.969Z,4.35
2024-01-15T11:04:05.269Z,4.34
2024-01-15T11:06:49.963Z,4.22
2024-01-15T11:09:19.910Z,4.30
2024-01-15T11:11:48.371Z,4.34
2024-01-15T11:14:35.134Z,4.45
2024-01-15T11:17:04.969Z,4.45
2024-01-15T11:19:47.149Z,4.50
2024-01-15T11:22:31.100Z,4.51
2024-01-15T11:25:14.687Z,4.68
2024-01-15T11:27:44.565Z,4.90
2024-01-15T11:30:14.282Z,4.82
2024-01-15T11:32:42.879Z,4.76
2024-01-15T11:35:12.838Z,4.60
2024-01-15T11:37:55.836Z,4.48
2024-01-15T11:40:38.975Z,4.45
2024-01-15T11:43:08.286Z,4.51
2024-01-15T11:45:36.487Z,4.70
2024-01-15T11:48:19.741Z,4.70
2024-01-15T11:50:50.991Z,4.71
2024-01-15T11:53:37.311Z,4.83
2024-01-15T11:56:09.709Z,4.93
2024-01-15T11:58:38.660Z,4.79
2024-01-15T12:01:06.301Z,4.75
2024-01-15T12:03:34.991Z,4.75
2024-01-15T12:06:05.044Z,4.72
2024-01-15T12:08:32.942Z,4.84
2024-01-15T12:11:00.700Z,4.66
2024-01-15T12:16:58.081Z,4.56
2024-01-15T12:19:26.371Z,4.66
2024-01-15T12:21:54.599Z,4.67
2024-01-15T12:24:23.030Z,4.87
2024-01-15T12:26:52.404Z,4.90
2024-01-15T12:29:20.186Z,4.90
2024-01-15T12:31:49.748Z,4.94
2024-01-15T12:34:19.054Z,5.02
2024-01-15T12:36:49.962Z,5.02
2024-01-15T12:39:22.071Z,4.96
2024-01-15T12:41:49.919Z,4.94
2024-01-15T12:44:20.525Z,4.88
2024-01-15T12:46:49.416Z,4.89
2024-01-15T12:49:19.040Z,4.88
2024-01-15T12:51:58.685Z,4.91
2024-01-15T12:54:27.610Z,4.77
2024-01-15T12:56:56.107Z,4.70
2024-01-15T12:59:23.847Z,4.66
2024-01-15T13:01:51.973Z,4.64
2024-01-15T13:04:26.838Z,4.63
2024-01-15T13:06:54.830Z,4.64
2024-01-15T13:09:23.615Z,4.60
2024-01-15T13:11:51.394Z,4.54
2024-01-15T13:14:19.339Z,4.62
2024-01-15T13:16:48.795Z,4.61
2024-01-15T13:19:17.186Z,4.67
2024-01-15T13:21:45.316Z,4.77
2024-01-15T13:24:13.579Z,4.79
2024-01-15T13:26:41.735Z,4.71
2024-01-15T13:29:12.512Z,4.68
2024-01-15T13:31:40.526Z,4.70
2024-01-15T13:34:08.716Z,4.77
2024-01-15T13:36:36.441Z,4.74
2024-01-15T13:39:04.411Z,4.64
2024-01-15T13:41:34.604Z,4.66
2024-01-15T13:44:02.317Z,4.67
2024-01-15T13:46:30.860Z,4.77
2024-01-15T13:48:58.555Z,4.79
2024-01-15T13:51:26.240Z,4.88
2024-01-15T13:53:54.573Z,4.89
2024-01-15T13:56:22.283Z,4.68
2024-01-15T13:58:55.627Z,4.64
2024-01-15T14:01:23.924Z,4.53
2024-01-15T14:03:52.038Z,4.51
2024-01-15T14:06:19.912Z,4.49
2024-01-15T14:08:48.008Z,4.56
2024-01-15T14:11:16.101Z,4.48
2024-01-15T14:13:43.853Z,4.34
2024-01-15T14:16:13.155Z,4.42
2024-01-15T14:18:41.580Z,4.59
2024-01-15T14:21:09.451Z,4.53
2024-01-15T14:23:37.185Z,4.53
2024-01-15T14:26:06.887Z,4.43
2024-01-15T14:28:34.928Z,4.40
2024-01-15T14:31:02.884Z,4.34
2024-01-15T14:33:31.089Z,4.21
2024-01-15T14:36:01.613Z,4.05
2024-01-15T14:38:29.287Z,4.12
2024-01-15T14:41:03.064Z,4.16
2024-01-15T14:43:31.271Z,4.01
2024-01-15T14:45:59.858Z,4.00
2024-01-15T14:48:31.455Z,4.01
2024-01-15T14:50:59.492Z,3.82
2024-01-15T14:53:27.481Z,3.93
2024-01-15T14:55:55.745Z,3.94
2024-01-15T14:58:26.012Z,3.83
2024-01-15T15:00:54.150Z,3.85
2024-01-15T15:03:22.192Z,3.65
2024-01-15T15:05:51.046Z,3.58
2024-01-15T15:08:18.773Z,3.64
2024-01-15T15:10:46.982Z,3.47
2024-01-15T15:13:18.135Z,3.46
2024-01-15T15:19:16.640Z,3.49
2024-01-15T15:21:44.803Z,3.42
2024-01-15T15:24:13.048Z,3.37
2024-01-15T15:27:01.863Z,3.24
2024-01-15T15:29:29.961Z,3.23
2024-01-15T15:31:58.246Z,3.33
2024-01-15T15:34:25.865Z,3.29
2024-01-15T15:36:53.474Z,3.15
2024-01-15T15:39:22.800Z,3.18
2024-01-15T15:41:51.012Z,3.15
2024-01-15T15:44:18.991Z,3.18
2024-01-15T15:46:46.820Z,3.13
2024-01-15T15:49:16.704Z,3.07
2024-01-15T15:51:46.563Z,3.15
2024-01-15T15:54:15.783Z,3.09
2024-01-15T15:56:48.766Z,3.12
2024-01-15T15:59:19.168Z,3.09
2024-01-15T16:01:49.071Z,3.12
2024-01-15T16:04:19.063Z,3.03
2024-01-15T16:06:49.963Z,3.01
2024-01-15T16:09:17.603Z,2.98
2024-01-15T16:11:45.340Z,2.98
2024-01-15T16:14:13.066Z,3.05
2024-01-15T16:23:12.181Z,2.97
2024-01-15T16:23:25.425Z,2.96
2024-01-15T16:23:40.971Z,2.89
2024-01-15T16:25:06.513Z,2.84
2024-01-15T16:27:34.592Z,2.92
2024-01-15T16:30:20.637Z,2.84
2024-01-15T16:33:00.835Z,2.83
2024-01-15T16:35:29.411Z,2.89
2024-01-15T16:37:57.794Z,2.85
2024-01-15T16:40:25.493Z,2.72
2024-01-15T16:42:55.875Z,2.61
2024-01-15T16:45:25.400Z,2.52
2024-01-15T16:47:53.179Z,2.47
2024-01-15T16:50:20.928Z,2.36
2024-01-15T16:52:50.362Z,2.29
2024-01-15T16:55:18.420Z,2.28
2024-01-15T16:57:46.046Z,2.39
2024-01-15T17:00:14.597Z,2.51
2024-01-15T17:02:42.549Z,2.50
2024-01-15T17:05:11.021Z,2.47
2024-01-15T17:07:41.364Z,2.52
2024-01-15T17:10:10.790Z,2.47
2024-01-15T17:12:39.651Z,2.46
2024-01-15T17:15:08.976Z,2.47
2024-01-15T17:17:40.104Z,2.54
2024-01-15T17:20:10.132Z,2.47
2024-01-15T17:22:38.122Z,2.47
2024-01-15T17:25:07.293Z,2.47
2024-01-15T17:27:35.356Z,2.44
2024-01-15T17:30:03.086Z,2.40
2024-01-15T17:32:30.818Z,2.38
2024-01-15T17:34:59.710Z,2.45
2024-01-15T17:37:30.106Z,2.45
2024-01-15T17:39:58.499Z,2.51
2024-01-15T17:42:26.685Z,2.56
2024-01-15T17:44:54.472Z,2.54
2024-01-15T17:47:22.412Z,2.47
2024-01-15T17:49:50.777Z,2.55
2024-01-15T17:52:18.715Z,2.53
2024-01-15T17:54:46.604Z,2.54
2024-01-15T17:57:16.776Z,2.45
2024-01-15T17:59:45.239Z,2.42
2024-01-15T18:02:13.065Z,2.34
2024-01-15T18:04:41.528Z,2.39
2024-01-15T18:07:09.178Z,2.44
2024-01-15T18:09:38.671Z,2.50
2024-01-15T18:12:07.516Z,2.44
2024-01-15T18:14:37.602Z,2.41
2024-01-15T18:20:39.471Z,2.35
2024-01-15T18:26:38.173Z,2.33
2024-01-15T18:29:06.124Z,2.33
2024-01-15T18:31:35.251Z,2.36
2024-01-15T18:34:04.829Z,2.27
2024-01-15T18:36:33.784Z,2.29
2024-01-15T18:39:07.096Z,2.29
2024-01-15T18:41:38.417Z,2.20
2024-01-15T18:44:05.983Z,2.40
2024-01-15T18:46:34.080Z,2.29
2024-01-15T18:49:09.290Z,2.37
2024-01-15T18:51:37.004Z,2.38
2024-01-15T18:54:06.434Z,2.26
2024-01-15T18:56:41.796Z,2.23
2024-01-15T18:59:10.052Z,2.15
2024-01-15T19:01:40.961Z,2.12
2024-01-15T19:04:13.073Z,2.15
2024-01-15T19:06:42.898Z,2.15
2024-01-15T19:09:12.034Z,2.10
2024-01-15T19:11:41.540Z,2.15
2024-01-15T19:14:09.714Z,2.15
2024-01-15T19:16:37.599Z,2.09
2024-01-15T19:19:05.417Z,2.06
2024-01-15T19:21:34.314Z,2.11
2024-01-15T19:24:03.608Z,2.02
2024-01-15T19:26:31.549Z,2.05
2024-01-15T19:29:03.089Z,2.03
2024-01-15T19:31:31.307Z,2.11
2024-01-15T19:34:01.108Z,2.06
2024-01-15T19:36:29.397Z,2.08
2024-01-15T19:38:57.104Z,2.08
2024-01-15T19:41:25.508Z,2.07
2024-01-15T19:43:54.004Z,2.09
2024-01-15T19:46:22.576Z,2.00
2024-01-15T19:48:50.868Z,2.04
2024-01-15T19:51:23.617Z,1.98
2024-01-15T19:53:54.411Z,1.89
2024-01-15T19:56:22.962Z,1.83
2024-01-15T19:58:52.932Z,1.98
2024-01-15T20:01:22.514Z,1.95
2024-01-15T20:03:51.819Z,1.85
2024-01-15T20:06:20.417Z,1.76
2024-01-15T20:12:02.430Z,1.69
2024-01-15T20:14:31.920Z,1.60
2024-01-15T20:17:01.150Z,1.60
2024-01-15T20:19:29.333Z,1.56
2024-01-15T20:25:35.221Z,1.44
2024-01-15T20:31:34.748Z,1.43
2024-01-15T20:34:02.796Z,1.53
2024-01-15T20:36:34.918Z,1.48
2024-01-15T20:39:04.003Z,1.67
2024-01-15T20:41:36.775Z,1.60
2024-01-15T20:44:06.270Z,1.62
2024-01-15T20:49:52.188Z,1.60
2024-01-15T20:52:22.543Z,1.60
2024-01-15T20:54:52.783Z,1.73
2024-01-15T20:57:29.270Z,1.68
2024-01-15T21:00:00.333Z,1.68
2024-01-15T21:02:28.870Z,1.65
2024-01-15T21:04:56.616Z,1.56
2024-01-15T21:07:24.847Z,1.61
2024-01-15T21:09:53.014Z,1.53
2024-01-15T21:12:22.845Z,1.53
2024-01-15T21:14:50.787Z,1.62
2024-01-15T21:17:19.137Z,1.49
2024-01-15T21:19:47.846Z,1.46
2024-01-15T21:22:17.052Z,1.42
2024-01-15T21:24:45.568Z,1.35
2024-01-15T21:27:13.219Z,1.37
2024-01-15T21:29:40.951Z,1.29
2024-01-15T21:32:08.961Z,1.26
2024-01-15T21:34:36.731Z,1.25
2024-01-15T21:37:06.003Z,1.19
2024-01-15T21:39:35.000Z,1.16
2024-01-15T21:42:02.622Z,1.14
2024-01-15T21:44:30.769Z,1.14
2024-01-15T21:46:59.456Z,1.21
2024-01-15T21:49:27.501Z,1.13
2024-01-15T21:51:57.028Z,1.18
2024-01-15T21:54:25.041Z,1.33
2024-01-15T21:56:53.334Z,1.29
2024-01-15T21:59:21.993Z,1.14
2024-01-15T22:01:56.192Z,1.03
2024-01-15T22:04:24.263Z,1.06
2024-01-15T22:06:53.461Z,1.01
2024-01-15T22:09:26.317Z,1.06
2024-01-15T22:11:54.313Z,1.15
2024-01-15T22:14:23.374Z,1.17
2024-01-15T22:16:53.360Z,1.26
2024-01-15T22:19:21.329Z,1.19
2024-01-15T22:21:49.706Z,1.16
2024-01-15T22:24:18.350Z,1.16
2024-01-15T22:26:46.623Z,1.06
2024-01-15T22:29:14.335Z,0.99
2024-01-15T22:31:42.395Z,1.05
2024-01-15T22:34:12.858Z,1.16
2024-01-15T22:36:40.692Z,1.16
2024-01-15T22:39:08.411Z,1.20
2024-01-15T22:41:36.384Z,1.25
2024-01-15T22:44:04.036Z,1.24
2024-01-15T22:46:33.338Z,1.21
2024-01-15T22:49:01.354Z,1.28
2024-01-15T22:51:29.047Z,1.35
2024-01-15T22:53:56.482Z,1.34
2024-01-15T22:56:24.456Z,1.34
2024-01-15T22:58:52.120Z,1.37
2024-01-15T23:01:21.721Z,1.41
2024-01-15T23:03:49.884Z,1.30
2024-01-15T23:06:20.068Z,1.17
2024-01-15T23:08:49.321Z,1.08
2024-01-15T23:11:16.812Z,0.95
2024-01-15T23:13:44.312Z,0.94
2024-01-15T23:16:15.198Z,0.93
2024-01-15T23:18:43.050Z,0.98
2024-01-15T23:21:10.771Z,0.96
2024-01-15T23:23:38.440Z,0.96
2024-01-15T23:26:11.660Z,0.95
2024-01-15T23:28:41.341Z,0.88
2024-01-15T23:31:09.258Z,0.84
2024-01-15T23:33:36.612Z,0.80
2024-01-15T23:36:04.933Z,0.65
2024-01-15T23:38:32.432Z,0.50
2024-01-15T23:40:59.894Z,0.50
2024-01-15T23:43:27.516Z,0.48
2024-01-15T23:45:59.752Z,0.46
2024-01-15T23:48:34.105Z,0.51
2024-01-15T23:51:04.278Z,0.45
2024-01-15T23:53:31.933Z,0.40
2024-01-15T23:56:01.899Z,0.37
2024-01-15T23:58:29.824Z,0.30
